Time;durP1;ratioP1;P1;durP2;ratioP2;P2;SDS_P1;SDS_P2;PMS_P1;PMS_P2;Temp;Humidity;BMP_temperature;BMP_pressure;BME280_temperature;BME280_humidity;BME280_pressure;Samples;Min_cycle;Max_cycle;Signal;HPM_P1;HPM_P2
2023/08/14 00:02:02;;;;;;;11.20;2.67;;;;;;;;;;6119076;23;20495;-42
2023/08/14 00:04:30;;;;;;;13.27;2.33;;;;;;;;;;6127451;23;20360;-42
2023/08/14 00:06:57;;;;;;;11.00;2.60;;;;;;;;;;6124489;23;20027;-45
2023/08/14 00:09:26;;;;;;;15.18;3.28;;;;;;;;;;6129449;23;20080;-44
2023/08/14 00:11:53;;;;;;;11.80;3.65;;;;;;;;;;6122389;23;20468;-43
2023/08/14 00:14:22;;;;;;;15.50;2.80;;;;;;;;;;6132561;23;20021;-43
2023/08/14 00:16:50;;;;;;;15.97;2.77;;;;;;;;;;6113246;23;20222;-45
2023/08/14 00:19:18;;;;;;;12.15;2.65;;;;;;;;;;6126259;23;20113;-43
2023/08/14 00:21:46;;;;;;;15.25;3.28;;;;;;;;;;6112917;23;20092;-43
2023/08/14 00:24:13;;;;;;;16.10;3.35;;;;;;;;;;6129300;23;20044;-42
2023/08/14 00:26:41;;;;;;;13.30;2.58;;;;;;;;;;6114686;23;20097;-47
2023/08/14 00:29:09;;;;;;;16.70;2.83;;;;;;;;;;6130152;23;20014;-42
2023/08/14 00:31:38;;;;;;;12.20;3.20;;;;;;;;;;6113353;23;20027;-45
2023/08/14 00:34:06;;;;;;;19.05;3.83;;;;;;;;;;6127733;23;20804;-43
2023/08/14 00:36:33;;;;;;;14.27;4.22;;;;;;;;;;6121294;23;20022;-42
2023/08/14 00:39:03;;;;;;;16.65;2.90;;;;;;;;;;6125649;23;20018;-42
2023/08/14 00:41:31;;;;;;;13.60;2.37;;;;;;;;;;6117061;23;20052;-44
2023/08/14 00:43:58;;;;;;;12.05;3.08;;;;;;;;;;6130987;23;20055;-42
2023/08/14 00:46:27;;;;;;;15.20;3.35;;;;;;;;;;6114997;23;20376;-42
2023/08/14 00:48:56;;;;;;;12.50;2.97;;;;;;;;;;6123060;23;20380;-43
2023/08/14 00:51:24;;;;;;;17.70;3.58;;;;;;;;;;6128713;23;20352;-42
2023/08/14 00:53:53;;;;;;;12.63;3.63;;;;;;;;;;6122069;23;20552;-43
2023/08/14 00:56:21;;;;;;;13.48;2.92;;;;;;;;;;6133457;23;20013;-44
2023/08/14 00:58:49;;;;;;;10.50;3.67;;;;;;;;;;6118746;23;20022;-43
2023/08/14 01:01:17;;;;;;;16.92;3.40;;;;;;;;;;6127867;23;20532;-46
2023/08/14 01:03:45;;;;;;;15.38;2.90;;;;;;;;;;6120670;23;20029;-46
2023/08/14 01:06:14;;;;;;;13.43;2.77;;;;;;;;;;6127278;23;20041;-42
2023/08/14 01:08:42;;;;;;;15.23;3.13;;;;;;;;;;6123600;23;20040;-42
2023/08/14 01:11:12;;;;;;;13.45;2.50;;;;;;;;;;6151670;23;20028;-42
2023/08/14 01:13:43;;;;;;;14.15;2.67;;;;;;;;;;6120285;23;20026;-43
2023/08/14 01:16:13;;;;;;;11.35;3.15;;;;;;;;;;6130250;23;20025;-43
2023/08/14 01:18:41;;;;;;;12.03;2.90;;;;;;;;;;6116615;23;20516;-43
2023/08/14 01:21:22;;;;;;;14.32;3.45;;;;;;;;;;6101913;23;20331;-42
2023/08/14 01:23:57;;;;;;;12.70;3.63;;;;;;;;;;6135826;23;20529;-42
2023/08/14 01:26:30;;;;;;;11.98;2.88;;;;;;;;;;6107828;23;20668;-42
2023/08/14 01:28:59;;;;;;;16.52;3.78;;;;;;;;;;6147692;23;20045;-43
2023/08/14 01:31:30;;;;;;;11.07;2.63;;;;;;;;;;6128714;23;20025;-43
2023/08/14 01:33:58;;;;;;;9.95;2.47;;;;;;;;;;6126955;23;20528;-42
2023/08/14 01:36:28;;;;;;;11.18;2.35;;;;;;;;;;6120879;23;20014;-42
2023/08/14 01:39:01;;;;;;;13.20;2.60;;;;;;;;;;6134875;23;20021;-43
2023/08/14 01:41:32;;;;;;;11.80;2.38;;;;;;;;;;6131999;23;20045;-44
2023/08/14 01:44:01;;;;;;;11.60;2.90;;;;;;;;;;6123258;23;20017;-43
2023/08/14 01:46:32;;;;;;;12.80;2.25;;;;;;;;;;6119441;23;20018;-44
2023/08/14 01:49:02;;;;;;;7.80;2.30;;;;;;;;;;6116347;23;20088;-44
2023/08/14 01:51:36;;;;;;;10.93;2.03;;;;;;;;;;6136626;23;20052;-43
2023/08/14 01:54:04;;;;;;;8.65;1.80;;;;;;;;;;6127872;23;20075;-44
2023/08/14 01:56:33;;;;;;;7.60;2.10;;;;;;;;;;6134168;23;20017;-44
2023/08/14 01:59:01;;;;;;;7.90;2.00;;;;;;;;;;6127815;23;20334;-45
2023/08/14 02:01:28;;;;;;;8.85;1.95;;;;;;;;;;6125033;23;20021;-44
2023/08/14 02:03:56;;;;;;;6.45;2.10;;;;;;;;;;6122201;23;20018;-42
2023/08/14 02:06:24;;;;;;;8.25;2.40;;;;;;;;;;6137583;23;20017;-45
2023/08/14 02:08:52;;;;;;;11.67;2.33;;;;;;;;;;6126833;23;20017;-43
2023/08/14 02:11:20;;;;;;;8.75;2.28;;;;;;;;;;6109402;23;20052;-42
2023/08/14 02:13:49;;;;;;;8.18;1.73;;;;;;;;;;6135427;23;20028;-43
2023/08/14 02:16:16;;;;;;;9.23;1.73;;;;;;;;;;6121936;23;20344;-44
2023/08/14 02:18:44;;;;;;;6.32;1.52;;;;;;;;;;6126314;23;20577;-42
2023/08/14 02:21:12;;;;;;;6.97;1.70;;;;;;;;;;6126676;23;20029;-44
2023/08/14 02:23:39;;;;;;;7.57;1.70;;;;;;;;;;6128288;23;20022;-43
2023/08/14 02:26:08;;;;;;;8.60;1.80;;;;;;;;;;6130980;23;20021;-42
2023/08/14 02:28:36;;;;;;;9.52;1.98;;;;;;;;;;6126674;23;20072;-44
2023/08/14 02:31:05;;;;;;;7.53;2.38;;;;;;;;;;6133200;23;20017;-43
2023/08/14 02:33:33;;;;;;;7.83;1.40;;;;;;;;;;6132687;23;20039;-42
2023/08/14 02:36:05;;;;;;;9.27;1.67;;;;;;;;;;6131471;23;20017;-45
2023/08/14 02:38:34;;;;;;;6.38;1.50;;;;;;;;;;6138773;23;20100;-42
2023/08/14 02:41:02;;;;;;;5.13;1.42;;;;;;;;;;6125193;23;20018;-42
2023/08/14 02:43:30;;;;;;;5.78;1.17;;;;;;;;;;6135996;23;20022;-42
2023/08/14 02:45:57;;;;;;;7.40;1.23;;;;;;;;;;6134085;23;20028;-42
2023/08/14 02:48:27;;;;;;;6.63;1.73;;;;;;;;;;6118356;23;20391;-42
2023/08/14 02:50:55;;;;;;;5.97;1.83;;;;;;;;;;6134349;23;20017;-42
2023/08/14 02:53:23;;;;;;;5.22;1.55;;;;;;;;;;6127852;23;20021;-42
2023/08/14 02:55:51;;;;;;;6.25;1.55;;;;;;;;;;6137689;23;20025;-42
2023/08/14 02:58:19;;;;;;;7.30;1.10;;;;;;;;;;6131278;23;20433;-42
2023/08/14 03:00:46;;;;;;;4.63;1.15;;;;;;;;;;6136652;23;20021;-42
2023/08/14 03:03:15;;;;;;;6.05;1.60;;;;;;;;;;6100894;23;20052;-42
2023/08/14 03:05:45;;;;;;;6.55;1.17;;;;;;;;;;6130722;23;20334;-42
2023/08/14 03:08:12;;;;;;;4.60;1.17;;;;;;;;;;6135327;23;20022;-43
2023/08/14 03:10:40;;;;;;;5.47;1.20;;;;;;;;;;6130039;23;20013;-42
2023/08/14 03:13:09;;;;;;;7.00;1.30;;;;;;;;;;6138698;23;20475;-44
2023/08/14 03:15:36;;;;;;;5.88;1.58;;;;;;;;;;6124531;23;20025;-43
2023/08/14 03:18:04;;;;;;;8.27;1.40;;;;;;;;;;6138164;23;20017;-42
2023/08/14 03:20:32;;;;;;;6.82;1.77;;;;;;;;;;6135548;23;20530;-42
2023/08/14 03:23:01;;;;;;;8.03;2.10;;;;;;;;;;6127364;23;20024;-42
2023/08/14 03:25:30;;;;;;;8.95;1.90;;;;;;;;;;6132139;23;20541;-42
2023/08/14 03:27:58;;;;;;;8.45;2.10;;;;;;;;;;6124971;23;20021;-43
2023/08/14 03:30:26;;;;;;;8.80;1.75;;;;;;;;;;6133103;23;20017;-46
2023/08/14 03:32:54;;;;;;;6.35;1.55;;;;;;;;;;6136082;23;20017;-42
2023/08/14 03:35:21;;;;;;;7.60;1.87;;;;;;;;;;6135049;23;20468;-42
2023/08/14 03:37:49;;;;;;;7.32;1.85;;;;;;;;;;6133303;23;20013;-43
2023/08/14 03:40:18;;;;;;;8.35;2.10;;;;;;;;;;6116656;23;20058;-43
2023/08/14 03:42:46;;;;;;;7.32;1.80;;;;;;;;;;6140524;23;20018;-42
2023/08/14 03:45:13;;;;;;;7.72;1.90;;;;;;;;;;6126242;23;20021;-42
2023/08/14 03:47:42;;;;;;;8.93;2.27;;;;;;;;;;6133421;23;20017;-43
2023/08/14 03:50:10;;;;;;;8.73;2.05;;;;;;;;;;6134159;23;20014;-42
2023/08/14 03:52:38;;;;;;;7.28;2.60;;;;;;;;;;6126003;23;20022;-42
2023/08/14 03:55:05;;;;;;;7.93;2.00;;;;;;;;;;6135798;23;20093;-42
2023/08/14 03:57:35;;;;;;;9.57;2.92;;;;;;;;;;6129770;23;20024;-42
2023/08/14 04:00:02;;;;;;;11.23;2.30;;;;;;;;;;6125091;23;20028;-43
2023/08/14 04:02:30;;;;;;;8.45;1.95;;;;;;;;;;6129171;23;20104;-43
2023/08/14 04:04:58;;;;;;;11.80;2.50;;;;;;;;;;6120169;23;20487;-46
2023/08/14 04:07:25;;;;;;;8.25;2.50;;;;;;;;;;6132432;23;20490;-44
2023/08/14 04:09:53;;;;;;;12.32;2.05;;;;;;;;;;6124979;23;20538;-43
2023/08/14 04:12:23;;;;;;;7.90;2.63;;;;;;;;;;6136940;23;20072;-43
2023/08/14 04:14:55;;;;;;;9.80;2.25;;;;;;;;;;6140477;23;20028;-42
2023/08/14 04:17:23;;;;;;;8.57;2.75;;;;;;;;;;6138386;23;20026;-46
2023/08/14 04:19:51;;;;;;;12.13;2.63;;;;;;;;;;6127881;23;20104;-45
2023/08/14 04:22:19;;;;;;;12.27;2.08;;;;;;;;;;6129963;23;20081;-45
2023/08/14 04:24:47;;;;;;;10.07;2.40;;;;;;;;;;6125056;23;20022;-42
2023/08/14 04:27:14;;;;;;;9.77;2.03;;;;;;;;;;6128033;23;20024;-43
2023/08/14 04:29:42;;;;;;;11.82;2.25;;;;;;;;;;6127127;23;20404;-42
2023/08/14 04:32:11;;;;;;;8.68;1.80;;;;;;;;;;6131931;23;20474;-42
2023/08/14 04:34:39;;;;;;;10.10;1.90;;;;;;;;;;6121783;23;20064;-43
2023/08/14 04:37:07;;;;;;;8.33;2.30;;;;;;;;;;6128589;23;20017;-42
2023/08/14 04:39:35;;;;;;;12.02;2.38;;;;;;;;;;6113236;23;20713;-42
2023/08/14 04:42:03;;;;;;;10.35;2.75;;;;;;;;;;6131932;23;20023;-43
2023/08/14 04:44:30;;;;;;;14.73;2.42;;;;;;;;;;6117831;23;20644;-42
2023/08/14 04:46:58;;;;;;;14.38;3.50;;;;;;;;;;6130810;23;20021;-42
2023/08/14 04:49:29;;;;;;;12.23;2.53;;;;;;;;;;6117953;23;20021;-42
2023/08/14 04:51:57;;;;;;;13.90;3.00;;;;;;;;;;6125167;23;20513;-43
2023/08/14 04:54:27;;;;;;;16.48;2.80;;;;;;;;;;6119235;23;20021;-42
2023/08/14 04:56:55;;;;;;;11.88;3.03;;;;;;;;;;6125658;23;20602;-42
2023/08/14 04:59:23;;;;;;;16.05;3.13;;;;;;;;;;6121411;23;20051;-42
2023/08/14 05:01:50;;;;;;;11.53;2.47;;;;;;;;;;6128492;23;20452;-43
2023/08/14 05:04:18;;;;;;;19.55;3.42;;;;;;;;;;6116379;23;20132;-43
2023/08/14 05:06:47;;;;;;;12.55;2.70;;;;;;;;;;6129391;23;20017;-42
2023/08/14 05:09:16;;;;;;;9.65;2.88;;;;;;;;;;6127489;23;20031;-43
2023/08/14 05:11:53;;;;;;;12.63;3.15;;;;;;;;;;6124199;23;20105;-42
2023/08/14 05:14:21;;;;;;;11.70;2.50;;;;;;;;;;6120322;23;20014;-43
2023/08/14 05:16:48;;;;;;;11.77;2.90;;;;;;;;;;6126714;23;20065;-44
2023/08/14 05:19:16;;;;;;;11.82;2.97;;;;;;;;;;6112631;23;20052;-43
2023/08/14 05:21:45;;;;;;;10.48;3.08;;;;;;;;;;6150966;23;20044;-43
2023/08/14 05:24:14;;;;;;;14.38;3.15;;;;;;;;;;6119011;23;20945;-42
2023/08/14 05:26:42;;;;;;;14.13;2.97;;;;;;;;;;6125471;23;20040;-42
2023/08/14 05:29:10;;;;;;;10.52;3.05;;;;;;;;;;6140848;23;20022;-43
2023/08/14 05:31:37;;;;;;;11.10;3.00;;;;;;;;;;6124742;23;20027;-42
2023/08/14 05:34:05;;;;;;;15.68;2.53;;;;;;;;;;6119913;23;20021;-43
2023/08/14 05:36:33;;;;;;;11.20;2.67;;;;;;;;;;6123250;23;20018;-44
2023/08/14 05:39:01;;;;;;;11.40;2.53;;;;;;;;;;6131334;23;20023;-43
2023/08/14 05:41:30;;;;;;;10.80;2.90;;;;;;;;;;6116431;23;20612;-43
2023/08/14 05:43:57;;;;;;;11.45;2.30;;;;;;;;;;6129105;23;20448;-47
2023/08/14 05:46:25;;;;;;;8.63;2.35;;;;;;;;;;6123018;23;20028;-42
2023/08/14 05:48:53;;;;;;;8.02;2.42;;;;;;;;;;6128207;23;20017;-42
2023/08/14 05:51:21;;;;;;;6.97;1.70;;;;;;;;;;6116333;23;20017;-42
2023/08/14 05:53:48;;;;;;;9.32;2.20;;;;;;;;;;6124593;23;20017;-45
2023/08/14 05:56:18;;;;;;;9.55;2.15;;;;;;;;;;6121181;23;20040;-45
2023/08/14 05:58:48;;;;;;;5.25;1.83;;;;;;;;;;6122054;23;20452;-43
2023/08/14 06:01:15;;;;;;;9.55;2.00;;;;;;;;;;6125316;23;20032;-42
2023/08/14 06:03:43;;;;;;;9.40;1.20;;;;;;;;;;6116698;23;20022;-45
2023/08/14 06:06:12;;;;;;;8.82;1.77;;;;;;;;;;6124427;23;20468;-43
2023/08/14 06:08:40;;;;;;;7.25;1.60;;;;;;;;;;6125073;23;20044;-44
2023/08/14 06:11:08;;;;;;;7.55;1.30;;;;;;;;;;6128073;23;20021;-43
2023/08/14 06:13:35;;;;;;;6.03;1.70;;;;;;;;;;6117295;23;20580;-43
2023/08/14 06:16:04;;;;;;;7.93;1.70;;;;;;;;;;6122306;23;20352;-45
2023/08/14 06:18:32;;;;;;;6.43;1.52;;;;;;;;;;6123919;23;20045;-44
2023/08/14 06:21:00;;;;;;;11.02;2.38;;;;;;;;;;6127816;23;20017;-42
2023/08/14 06:23:29;;;;;;;10.35;2.28;;;;;;;;;;6119905;23;20024;-42
2023/08/14 06:25:57;;;;;;;13.10;2.80;;;;;;;;;;6130626;23;20022;-44
2023/08/14 06:28:25;;;;;;;8.57;2.30;;;;;;;;;;6119468;23;20024;-44
2023/08/14 06:30:53;;;;;;;11.95;2.38;;;;;;;;;;6124643;23;20018;-43
2023/08/14 06:33:22;;;;;;;9.05;2.15;;;;;;;;;;6121784;23;20013;-44
2023/08/14 06:35:50;;;;;;;14.05;2.90;;;;;;;;;;6119978;23;20488;-45
2023/08/14 06:38:17;;;;;;;8.00;2.58;;;;;;;;;;6109485;23;20013;-44
2023/08/14 06:40:45;;;;;;;8.70;2.00;;;;;;;;;;6127870;23;20668;-45
2023/08/14 06:43:13;;;;;;;8.70;2.00;;;;;;;;;;6120937;23;20021;-44
2023/08/14 06:45:40;;;;;;;8.85;2.33;;;;;;;;;;6129281;23;20029;-42
2023/08/14 06:48:09;;;;;;;11.43;2.00;;;;;;;;;;6117676;23;20013;-44
2023/08/14 06:50:40;;;;;;;12.95;2.80;;;;;;;;;;6126675;23;20444;-42
2023/08/14 06:53:08;;;;;;;7.17;1.80;;;;;;;;;;6122762;23;20025;-42
2023/08/14 06:55:36;;;;;;;11.32;2.28;;;;;;;;;;6144145;23;20141;-44
2023/08/14 06:58:04;;;;;;;9.18;2.38;;;;;;;;;;6130396;23;20081;-42
2023/08/14 07:00:31;;;;;;;10.40;1.92;;;;;;;;;;6116720;23;20471;-42
2023/08/14 07:02:59;;;;;;;6.95;1.90;;;;;;;;;;6130520;23;20026;-43
2023/08/14 07:05:28;;;;;;;8.27;1.70;;;;;;;;;;6119693;23;20528;-44
2023/08/14 07:07:58;;;;;;;6.00;1.45;;;;;;;;;;6129052;23;20092;-43
2023/08/14 07:10:26;;;;;;;9.80;1.98;;;;;;;;;;6122802;23;20021;-43
2023/08/14 07:12:53;;;;;;;6.13;1.00;;;;;;;;;;6118408;23;20014;-42
2023/08/14 07:15:21;;;;;;;5.65;1.13;;;;;;;;;;6130070;23;20027;-44
2023/08/14 07:17:49;;;;;;;7.77;1.17;;;;;;;;;;6119657;23;20706;-42
2023/08/14 07:20:17;;;;;;;5.78;0.95;;;;;;;;;;6132201;23;20515;-43
2023/08/14 07:22:45;;;;;;;4.97;0.70;;;;;;;;;;6116191;23;20018;-42
2023/08/14 07:25:13;;;;;;;4.80;0.80;;;;;;;;;;6130968;23;20022;-43
2023/08/14 07:27:41;;;;;;;4.55;0.73;;;;;;;;;;6116238;23;20096;-43
2023/08/14 07:30:10;;;;;;;3.97;0.60;;;;;;;;;;6130571;23;20383;-44
2023/08/14 07:32:38;;;;;;;4.28;0.50;;;;;;;;;;6115825;23;20467;-43
2023/08/14 07:35:06;;;;;;;4.75;0.80;;;;;;;;;;6125750;23;20024;-42
2023/08/14 07:37:34;;;;;;;3.20;0.70;;;;;;;;;;6146293;23;20018;-43
2023/08/14 07:40:02;;;;;;;2.53;0.50;;;;;;;;;;6120995;23;20092;-43
2023/08/14 07:42:33;;;;;;;4.80;0.60;;;;;;;;;;6123441;23;20022;-44
2023/08/14 07:45:01;;;;;;;3.50;0.55;;;;;;;;;;6127559;23;20021;-43
2023/08/14 07:47:29;;;;;;;3.10;0.60;;;;;;;;;;6118089;23;20026;-43
2023/08/14 07:49:57;;;;;;;4.25;1.00;;;;;;;;;;6151092;23;20060;-44
2023/08/14 07:52:25;;;;;;;5.78;0.82;;;;;;;;;;6120953;23;20104;-42
2023/08/14 07:54:53;;;;;;;3.97;1.27;;;;;;;;;;6123605;23;20754;-43
2023/08/14 07:57:20;;;;;;;6.05;1.15;;;;;;;;;;6121662;23;20017;-44
2023/08/14 07:59:49;;;;;;;7.32;1.40;;;;;;;;;;6111385;23;20370;-45
2023/08/14 08:02:17;;;;;;;5.50;1.42;;;;;;;;;;6126943;23;20021;-43
2023/08/14 08:04:45;;;;;;;7.70;1.67;;;;;;;;;;6118215;23;20018;-43
2023/08/14 08:07:14;;;;;;;8.53;1.50;;;;;;;;;;6120237;23;20017;-44
2023/08/14 08:09:43;;;;;;;6.25;1.65;;;;;;;;;;6119883;23;20818;-43
2023/08/14 08:12:11;;;;;;;8.93;2.10;;;;;;;;;;6122182;23;20026;-43
2023/08/14 08:14:39;;;;;;;7.88;2.17;;;;;;;;;;6100216;23;20021;-46
2023/08/14 08:17:09;;;;;;;8.45;2.42;;;;;;;;;;6126250;23;20025;-44
2023/08/14 08:19:37;;;;;;;9.83;2.10;;;;;;;;;;6102557;23;20032;-44
2023/08/14 08:22:06;;;;;;;10.10;2.10;;;;;;;;;;6114579;23;20024;-44
2023/08/14 08:24:34;;;;;;;11.75;1.95;;;;;;;;;;6112996;23;20037;-47
2023/08/14 08:27:01;;;;;;;12.98;3.13;;;;;;;;;;6117164;23;20055;-43
2023/08/14 08:29:29;;;;;;;11.52;2.70;;;;;;;;;;6116362;23;20017;-43
2023/08/14 08:31:57;;;;;;;9.63;2.87;;;;;;;;;;6111056;23;20021;-43
2023/08/14 08:34:27;;;;;;;11.70;2.35;;;;;;;;;;6104591;23;20436;-44
2023/08/14 08:36:55;;;;;;;10.18;2.85;;;;;;;;;;6112816;23;20136;-43
2023/08/14 08:39:23;;;;;;;15.05;3.30;;;;;;;;;;6098629;23;20017;-44
2023/08/14 08:41:52;;;;;;;13.65;3.20;;;;;;;;;;6104501;23;20017;-44
2023/08/14 08:44:22;;;;;;;14.80;3.60;;;;;;;;;;6105887;23;20018;-44
2023/08/14 08:46:52;;;;;;;15.27;3.33;;;;;;;;;;6111469;23;20017;-43
2023/08/14 08:49:19;;;;;;;13.73;3.05;;;;;;;;;;6101769;23;20021;-43
2023/08/14 08:51:49;;;;;;;12.02;3.08;;;;;;;;;;6104808;23;20363;-42
2023/08/14 08:54:17;;;;;;;9.35;2.85;;;;;;;;;;6099762;23;20365;-43
2023/08/14 08:56:46;;;;;;;15.37;3.03;;;;;;;;;;6115500;23;20067;-44
2023/08/14 08:59:14;;;;;;;14.82;3.85;;;;;;;;;;6118822;23;20017;-43
2023/08/14 09:01:43;;;;;;;15.55;4.20;;;;;;;;;;6128864;23;20017;-45
2023/08/14 09:04:11;;;;;;;16.25;3.45;;;;;;;;;;6118486;23;20547;-46
2023/08/14 09:06:39;;;;;;;17.55;4.03;;;;;;;;;;6128357;23;20018;-45
2023/08/14 09:09:08;;;;;;;13.27;3.03;;;;;;;;;;6120056;23;20013;-42
2023/08/14 09:11:36;;;;;;;16.58;3.88;;;;;;;;;;6093588;23;20021;-49
2023/08/14 09:14:04;;;;;;;12.45;3.75;;;;;;;;;;6134589;23;20539;-44
2023/08/14 09:16:34;;;;;;;19.50;3.75;;;;;;;;;;6103704;23;20018;-44
2023/08/14 09:19:03;;;;;;;15.35;3.88;;;;;;;;;;6111424;23;20676;-45
2023/08/14 09:21:31;;;;;;;21.83;4.33;;;;;;;;;;6105233;23;20024;-44
2023/08/14 09:23:59;;;;;;;16.20;4.90;;;;;;;;;;6105607;23;20022;-44
2023/08/14 09:26:28;;;;;;;16.75;4.47;;;;;;;;;;6110905;23;20021;-44
2023/08/14 09:29:15;;;;;;;15.80;3.92;;;;;;;;;;6106497;23;20025;-44
2023/08/14 09:31:49;;;;;;;17.90;3.80;;;;;;;;;;6102207;23;20032;-43
2023/08/14 09:34:17;;;;;;;20.67;4.57;;;;;;;;;;6115970;23;20017;-45
2023/08/14 09:36:45;;;;;;;15.55;3.95;;;;;;;;;;6119752;23;20014;-43
2023/08/14 09:39:16;;;;;;;18.95;3.65;;;;;;;;;;6125432;23;20073;-43
2023/08/14 09:41:48;;;;;;;13.52;3.72;;;;;;;;;;6130670;23;20069;-42
2023/08/14 09:44:18;;;;;;;14.43;3.83;;;;;;;;;;6112272;23;20420;-46
2023/08/14 09:46:48;;;;;;;13.00;3.73;;;;;;;;;;6125992;23;20021;-42
2023/08/14 09:49:17;;;;;;;15.93;2.90;;;;;;;;;;6111265;23;20079;-43
2023/08/14 09:51:53;;;;;;;10.80;2.92;;;;;;;;;;6128672;23;20461;-44
2023/08/14 09:54:29;;;;;;;11.05;2.70;;;;;;;;;;6140336;23;20028;-43
2023/08/14 09:57:03;;;;;;;15.70;3.80;;;;;;;;;;6126015;23;20064;-43
2023/08/14 09:59:35;;;;;;;13.57;3.00;;;;;;;;;;6121175;23;20648;-45
2023/08/14 10:02:04;;;;;;;11.52;3.22;;;;;;;;;;6125636;23;20044;-42
2023/08/14 10:04:32;;;;;;;10.05;3.25;;;;;;;;;;6117887;23;20028;-43
2023/08/14 10:07:00;;;;;;;10.20;2.30;;;;;;;;;;6125774;23;20040;-44
2023/08/14 10:09:29;;;;;;;14.38;2.45;;;;;;;;;;6120321;23;20021;-42
2023/08/14 10:11:57;;;;;;;11.77;2.90;;;;;;;;;;6127434;23;20377;-44
2023/08/14 10:14:29;;;;;;;9.20;2.58;;;;;;;;;;6116591;23;20116;-46
2023/08/14 10:17:19;;;;;;;8.77;2.10;;;;;;;;;;6121422;23;20017;-46
2023/08/14 10:19:49;;;;;;;10.95;3.13;;;;;;;;;;6116144;23;20027;-46
2023/08/14 10:22:19;;;;;;;12.38;2.88;;;;;;;;;;6121570;23;20017;-44
2023/08/14 10:24:48;;;;;;;11.77;3.10;;;;;;;;;;6128690;23;20376;-44
2023/08/14 10:27:15;;;;;;;12.77;2.80;;;;;;;;;;6119751;23;20112;-45
2023/08/14 10:29:45;;;;;;;16.05;3.20;;;;;;;;;;6123593;23;20330;-45
2023/08/14 10:32:33;;;;;;;12.45;3.40;;;;;;;;;;6115228;23;20577;-45
2023/08/14 10:35:02;;;;;;;16.25;3.97;;;;;;;;;;6128086;23;20014;-45
2023/08/14 10:37:43;;;;;;;11.83;3.33;;;;;;;;;;6127770;23;20018;-43
2023/08/14 10:40:18;;;;;;;14.88;3.83;;;;;;;;;;6125642;23;20028;-43
2023/08/14 10:42:46;;;;;;;12.35;3.63;;;;;;;;;;6114944;23;20017;-43
2023/08/14 10:45:17;;;;;;;15.07;3.72;;;;;;;;;;6130454;23;20017;-44
2023/08/14 10:47:45;;;;;;;13.63;3.05;;;;;;;;;;6110432;23;20369;-44
2023/08/14 10:50:14;;;;;;;15.27;3.63;;;;;;;;;;6132138;23;20105;-42
2023/08/14 10:52:42;;;;;;;16.05;3.47;;;;;;;;;;6111716;23;20307;-43
2023/08/14 10:55:15;;;;;;;11.27;3.35;;;;;;;;;;6129519;23;20023;-43
2023/08/14 10:57:42;;;;;;;10.48;3.08;;;;;;;;;;6134765;23;20064;-43
2023/08/14 11:00:21;;;;;;;15.57;3.67;;;;;;;;;;6129676;23;20064;-46
2023/08/14 11:02:54;;;;;;;16.13;3.00;;;;;;;;;;6144464;23;20200;-43
2023/08/14 11:05:22;;;;;;;13.25;3.58;;;;;;;;;;6123722;23;20348;-44
2023/08/14 11:07:59;;;;;;;15.38;3.78;;;;;;;;;;6128434;23;20018;-43
2023/08/14 11:10:27;;;;;;;13.40;3.15;;;;;;;;;;6126026;23;20341;-47
2023/08/14 11:12:57;;;;;;;11.98;3.28;;;;;;;;;;6123437;23;20424;-43
2023/08/14 11:15:26;;;;;;;14.10;4.53;;;;;;;;;;6131393;23;20048;-43
2023/08/14 11:17:54;;;;;;;14.48;3.85;;;;;;;;;;6114130;23;20319;-45
2023/08/14 11:20:22;;;;;;;11.25;3.30;;;;;;;;;;6137203;23;20025;-42
2023/08/14 11:22:49;;;;;;;14.70;3.75;;;;;;;;;;6114440;23;20096;-45
2023/08/14 11:25:17;;;;;;;15.50;3.55;;;;;;;;;;6132288;23;20022;-42
2023/08/14 11:27:48;;;;;;;20.13;3.60;;;;;;;;;;6119891;23;20021;-44
2023/08/14 11:30:16;;;;;;;14.38;4.35;;;;;;;;;;6129904;23;20017;-47
2023/08/14 11:32:54;;;;;;;17.52;3.53;;;;;;;;;;6128187;23;20052;-42
2023/08/14 11:35:22;;;;;;;17.38;4.45;;;;;;;;;;6103892;23;20014;-44
2023/08/14 11:37:51;;;;;;;12.93;3.55;;;;;;;;;;6122551;23;20502;-46
2023/08/14 11:40:19;;;;;;;13.13;3.20;;;;;;;;;;6128504;23;20050;-42
2023/08/14 11:42:47;;;;;;;11.88;3.58;;;;;;;;;;6119683;23;20093;-43
2023/08/14 11:45:14;;;;;;;12.00;3.55;;;;;;;;;;6131177;23;20553;-42
2023/08/14 11:47:47;;;;;;;15.43;4.00;;;;;;;;;;6115822;23;20010;-43
2023/08/14 11:50:17;;;;;;;12.68;3.25;;;;;;;;;;6127124;23;20470;-42
2023/08/14 11:52:45;;;;;;;14.97;4.37;;;;;;;;;;6116158;23;20013;-43
2023/08/14 11:55:13;;;;;;;17.20;3.90;;;;;;;;;;6129639;23;20251;-43
2023/08/14 11:57:43;;;;;;;19.35;4.78;;;;;;;;;;6141375;23;20808;-43
2023/08/14 12:00:13;;;;;;;13.30;4.18;;;;;;;;;;6129967;23;20017;-43
2023/08/14 12:02:44;;;;;;;19.50;4.03;;;;;;;;;;6115765;23;20428;-43
2023/08/14 12:05:12;;;;;;;18.70;4.00;;;;;;;;;;6121927;23;20025;-43
2023/08/14 12:07:43;;;;;;;17.88;3.80;;;;;;;;;;6127018;23;20018;-43
2023/08/14 12:10:15;;;;;;;20.17;4.32;;;;;;;;;;6122089;23;20459;-44
2023/08/14 12:12:43;;;;;;;14.77;3.83;;;;;;;;;;6117098;23;20013;-44
2023/08/14 12:15:22;;;;;;;16.10;3.45;;;;;;;;;;6129365;23;20032;-43
2023/08/14 12:17:52;;;;;;;16.93;2.90;;;;;;;;;;6115820;23;20361;-43
2023/08/14 12:20:22;;;;;;;13.25;2.83;;;;;;;;;;6119532;23;20142;-43
2023/08/14 12:22:51;;;;;;;11.25;2.45;;;;;;;;;;6116520;23;20099;-43
2023/08/14 12:25:32;;;;;;;12.50;2.92;;;;;;;;;;6128110;23;20018;-44
2023/08/14 12:28:03;;;;;;;10.55;3.45;;;;;;;;;;6119463;23;20030;-43
2023/08/14 12:30:30;;;;;;;15.87;3.90;;;;;;;;;;6120828;23;20099;-43
2023/08/14 12:32:58;;;;;;;10.90;2.78;;;;;;;;;;6120638;23;20021;-44
2023/08/14 12:35:26;;;;;;;11.15;2.65;;;;;;;;;;6124459;23;20036;-43
2023/08/14 12:37:55;;;;;;;7.68;2.40;;;;;;;;;;6118810;23;20017;-43
2023/08/14 12:40:22;;;;;;;11.10;2.17;;;;;;;;;;6122967;23;20021;-45
2023/08/14 12:42:53;;;;;;;8.70;2.40;;;;;;;;;;6116288;23;20041;-45
2023/08/14 12:45:21;;;;;;;8.93;2.53;;;;;;;;;;6127470;23;20017;-43
2023/08/14 12:47:48;;;;;;;7.93;2.50;;;;;;;;;;6111059;23;20028;-43
2023/08/14 12:50:16;;;;;;;8.52;1.83;;;;;;;;;;6124087;23;20035;-47
2023/08/14 12:52:44;;;;;;;8.35;2.10;;;;;;;;;;6115299;23;20510;-43
2023/08/14 12:55:14;;;;;;;7.03;1.77;;;;;;;;;;6122146;23;20026;-43
2023/08/14 12:57:45;;;;;;;9.50;1.73;;;;;;;;;;6108691;23;20017;-46
2023/08/14 13:00:15;;;;;;;6.38;1.90;;;;;;;;;;6117981;23;20623;-44
2023/08/14 13:02:43;;;;;;;12.50;2.00;;;;;;;;;;6122598;23;20017;-43
2023/08/14 13:05:12;;;;;;;9.15;1.60;;;;;;;;;;6125946;23;20456;-46
2023/08/14 13:07:40;;;;;;;6.07;1.97;;;;;;;;;;6125083;23;20041;-43
2023/08/14 13:10:08;;;;;;;7.65;1.77;;;;;;;;;;6122443;23;20638;-44
2023/08/14 13:12:37;;;;;;;9.05;2.15;;;;;;;;;;6128463;23;20042;-44
2023/08/14 13:15:05;;;;;;;6.95;2.60;;;;;;;;;;6099075;23;20022;-43
2023/08/14 13:17:33;;;;;;;11.18;2.88;;;;;;;;;;6117584;23;20037;-43
2023/08/14 13:20:00;;;;;;;9.27;1.80;;;;;;;;;;6093589;23;20385;-44
2023/08/14 13:22:28;;;;;;;8.38;1.45;;;;;;;;;;6131300;23;20018;-46
2023/08/14 13:24:56;;;;;;;7.95;1.33;;;;;;;;;;6112137;23;20382;-46
2023/08/14 13:27:24;;;;;;;7.75;1.23;;;;;;;;;;6106316;23;20436;-44
2023/08/14 13:29:53;;;;;;;7.05;1.50;;;;;;;;;;6105932;23;20064;-45
2023/08/14 13:32:21;;;;;;;8.63;1.60;;;;;;;;;;6105460;23;20021;-44
2023/08/14 13:34:49;;;;;;;8.32;2.05;;;;;;;;;;6096921;23;20347;-46
2023/08/14 13:37:16;;;;;;;8.70;1.67;;;;;;;;;;6110218;23;20455;-46
2023/08/14 13:39:45;;;;;;;6.97;1.80;;;;;;;;;;6101064;23;20092;-46
2023/08/14 13:42:12;;;;;;;8.32;1.70;;;;;;;;;;6108478;23;20022;-44
2023/08/14 13:44:40;;;;;;;6.50;1.47;;;;;;;;;;6103237;23;20013;-43
2023/08/14 13:47:09;;;;;;;10.15;1.65;;;;;;;;;;6109702;23;20029;-43
2023/08/14 13:49:37;;;;;;;7.13;1.75;;;;;;;;;;6096404;23;20364;-43
2023/08/14 13:52:06;;;;;;;8.82;2.42;;;;;;;;;;6101506;23;20033;-42
2023/08/14 13:54:34;;;;;;;6.93;1.48;;;;;;;;;;6104123;23;20048;-43
2023/08/14 13:57:02;;;;;;;7.23;1.50;;;;;;;;;;6111610;23;20021;-44
2023/08/14 13:59:31;;;;;;;7.05;1.60;;;;;;;;;;6094936;23;20017;-44
2023/08/14 14:01:59;;;;;;;4.40;1.38;;;;;;;;;;6102237;23;20025;-43
2023/08/14 14:04:32;;;;;;;6.15;1.27;;;;;;;;;;6103294;23;20025;-42
2023/08/14 14:06:59;;;;;;;6.00;1.35;;;;;;;;;;6104447;23;20021;-43
2023/08/14 14:09:29;;;;;;;8.17;1.40;;;;;;;;;;6105457;23;20088;-44
2023/08/14 14:11:57;;;;;;;6.53;1.30;;;;;;;;;;6124547;23;20025;-44
2023/08/14 14:14:24;;;;;;;7.47;1.65;;;;;;;;;;6095890;23;20017;-44
2023/08/14 14:16:55;;;;;;;4.68;1.52;;;;;;;;;;6117913;23;20340;-44
2023/08/14 14:19:23;;;;;;;7.05;1.50;;;;;;;;;;6102861;23;20213;-43
2023/08/14 14:21:52;;;;;;;7.17;1.23;;;;;;;;;;6099101;23;20268;-43
2023/08/14 14:24:20;;;;;;;3.60;0.75;;;;;;;;;;6098785;23;20017;-43
2023/08/14 14:26:47;;;;;;;3.10;0.60;;;;;;;;;;6110681;23;20024;-43
2023/08/14 14:29:15;;;;;;;5.03;0.70;;;;;;;;;;6103837;23;20076;-48
2023/08/14 14:31:42;;;;;;;4.38;0.98;;;;;;;;;;6123507;23;20142;-43
2023/08/14 14:34:10;;;;;;;3.97;0.63;;;;;;;;;;6097025;23;20155;-45
2023/08/14 14:36:38;;;;;;;4.82;0.85;;;;;;;;;;6104549;23;20029;-45
2023/08/14 14:39:07;;;;;;;4.18;0.47;;;;;;;;;;6113858;23;20024;-45
2023/08/14 14:41:35;;;;;;;3.63;0.60;;;;;;;;;;6092131;23;20024;-43
2023/08/14 14:44:06;;;;;;;7.68;0.90;;;;;;;;;;6111058;23;20349;-44
2023/08/14 14:46:37;;;;;;;4.00;0.63;;;;;;;;;;6109374;23;20025;-45